createdAt,value
2022-08-19T00:00:52.508Z,22.70
2022-08-19T00:07:35.372Z,22.60
2022-08-19T00:14:19.066Z,22.60
2022-08-19T00:21:01.647Z,22.60
2022-08-19T00:27:44.083Z,22.70
2022-08-19T00:34:30.331Z,22.60
2022-08-19T00:41:19.103Z,22.60
2022-08-19T00:48:04.983Z,22.50
2022-08-19T00:54:52.059Z,22.60
2022-08-19T01:01:36.411Z,22.50
2022-08-19T01:08:20.121Z,22.50
2022-08-19T01:15:03.350Z,22.50
2022-08-19T01:21:54.085Z,22.50
2022-08-19T01:28:39.881Z,22.40
2022-08-19T01:35:24.536Z,22.40
2022-08-19T01:42:11.958Z,22.40
2022-08-19T01:48:54.340Z,22.50
2022-08-19T01:55:40.584Z,22.40
2022-08-19T02:02:23.998Z,22.30
2022-08-19T02:09:07.463Z,22.20
2022-08-19T02:15:50.045Z,22.10
2022-08-19T02:22:32.431Z,22.00
2022-08-19T02:29:14.869Z,22.00
2022-08-19T02:35:57.288Z,21.90
2022-08-19T02:42:41.669Z,21.90
2022-08-19T02:49:24.084Z,21.80
2022-08-19T02:56:08.664Z,21.70
2022-08-19T03:02:51.469Z,21.60
2022-08-19T03:09:33.862Z,21.40
2022-08-19T03:16:17.189Z,21.30
2022-08-19T03:22:59.672Z,21.30
2022-08-19T03:29:43.163Z,21.30
2022-08-19T03:36:28.535Z,21.30
2022-08-19T03:43:12.030Z,21.30
2022-08-19T03:49:54.594Z,21.20
2022-08-19T03:56:39.472Z,21.20
2022-08-19T04:03:22.138Z,21.10
2022-08-19T04:10:05.117Z,21.10
2022-08-19T04:16:49.298Z,21.10
2022-08-19T04:23:32.562Z,21.00
2022-08-19T04:30:15.985Z,21.00
2022-08-19T04:36:59.839Z,21.00
2022-08-19T04:43:42.321Z,21.00
2022-08-19T04:50:25.610Z,20.80
2022-08-19T04:57:10.817Z,20.90
2022-08-19T05:03:53.847Z,21.00
2022-08-19T05:10:40.225Z,21.00
2022-08-19T05:17:34.598Z,21.00
2022-08-19T05:24:22.010Z,21.10
2022-08-19T05:31:04.465Z,21.10
2022-08-19T05:37:46.962Z,21.20
2022-08-19T05:44:34.486Z,21.20
2022-08-19T05:51:17.969Z,21.30
2022-08-19T05:58:02.615Z,21.30
2022-08-19T06:04:45.156Z,21.30
2022-08-19T06:11:56.068Z,21.30
2022-08-19T06:18:38.675Z,21.30
2022-08-19T06:25:21.194Z,21.30
2022-08-19T06:32:04.848Z,21.30
2022-08-19T06:38:47.221Z,21.20
2022-08-19T06:45:35.708Z,21.30
2022-08-19T06:52:20.787Z,21.30
2022-08-19T06:59:09.398Z,21.20
2022-08-19T07:05:51.750Z,21.20
2022-08-19T07:12:35.732Z,21.40
2022-08-19T07:19:20.522Z,21.70
2022-08-19T07:26:20.019Z,21.60
2022-08-19T07:33:10.404Z,21.70
2022-08-19T07:39:52.843Z,21.70
2022-08-19T07:46:38.440Z,21.70
2022-08-19T07:53:21.887Z,21.70
2022-08-19T08:00:05.797Z,21.50
2022-08-19T08:07:14.283Z,21.40
2022-08-19T08:14:01.097Z,21.40
2022-08-19T08:20:47.174Z,21.30
2022-08-19T08:27:31.928Z,21.30
2022-08-19T08:34:15.559Z,21.20
2022-08-19T08:41:07.052Z,21.20
2022-08-19T08:47:53.080Z,21.40
2022-08-19T08:54:49.023Z,22.00
2022-08-19T09:01:38.086Z,22.70
2022-08-19T09:08:38.561Z,23.30
2022-08-19T09:15:33.519Z,23.10
2022-08-19T09:22:25.584Z,22.90
2022-08-19T09:29:09.894Z,22.70
2022-08-19T09:36:08.603Z,22.70
2022-08-19T09:42:52.606Z,22.80
2022-08-19T09:49:35.154Z,22.70
2022-08-19T09:56:19.668Z,22.60
2022-08-19T10:03:02.022Z,22.70
2022-08-19T10:09:45.890Z,22.70
2022-08-19T10:16:30.245Z,22.70
2022-08-19T10:23:13.713Z,22.70
2022-08-19T10:29:56.175Z,22.90
2022-08-19T10:36:55.867Z,23.30
2022-08-19T10:43:39.249Z,23.30
2022-08-19T10:50:40.288Z,23.40
2022-08-19T10:57:46.066Z,23.40
2022-08-19T11:04:33.449Z,23.10
2022-08-19T11:11:15.804Z,23.20
2022-08-19T11:17:58.143Z,23.40
2022-08-19T11:24:40.523Z,23.60
2022-08-19T11:31:29.584Z,23.90
2022-08-19T11:38:12.161Z,23.90
2022-08-19T11:44:55.177Z,24.20
2022-08-19T11:51:37.634Z,24.20
2022-08-19T11:58:20.029Z,24.10
2022-08-19T12:05:09.027Z,24.00
2022-08-19T12:11:54.219Z,24.00
2022-08-19T12:18:36.610Z,24.00
2022-08-19T12:25:19.300Z,24.10
2022-08-19T12:32:05.071Z,24.30
2022-08-19T12:38:47.785Z,24.30
2022-08-19T12:45:30.412Z,23.80
2022-08-19T12:52:16.218Z,23.30
2022-08-19T12:58:58.951Z,23.00
2022-08-19T13:05:41.323Z,22.90
2022-08-19T13:12:27.520Z,22.60
2022-08-19T13:19:10.037Z,22.20
2022-08-19T13:26:00.445Z,22.10
2022-08-19T13:33:01.629Z,22.20
2022-08-19T13:39:45.908Z,22.10
2022-08-19T13:46:30.197Z,21.90
2022-08-19T13:53:13.069Z,21.70
2022-08-19T13:59:55.729Z,21.70
2022-08-19T14:06:38.161Z,21.60
2022-08-19T14:13:22.713Z,21.30
2022-08-19T14:20:10.587Z,21.30
2022-08-19T14:26:53.553Z,21.20
2022-08-19T14:33:36.291Z,21.30
2022-08-19T14:40:22.730Z,21.30
2022-08-19T14:47:05.403Z,21.40
2022-08-19T14:53:50.935Z,21.10
2022-08-19T15:00:33.326Z,21.10
2022-08-19T15:07:19.444Z,21.10
2022-08-19T15:14:02.448Z,21.30
2022-08-19T15:20:46.695Z,21.60
2022-08-19T15:27:29.294Z,21.90
2022-08-19T15:34:11.715Z,21.80
2022-08-19T15:40:54.366Z,21.70
2022-08-19T15:47:38.595Z,21.70
2022-08-19T15:54:21.938Z,22.00
2022-08-19T16:01:27.133Z,22.00
2022-08-19T16:08:10.591Z,22.20
2022-08-19T16:14:53.443Z,22.40
2022-08-19T16:21:37.986Z,22.40
2022-08-19T16:28:23.474Z,22.90
2022-08-19T16:35:06.888Z,22.80
2022-08-19T16:41:50.899Z,22.80
2022-08-19T16:48:33.444Z,22.50
2022-08-19T16:55:16.881Z,22.40
2022-08-19T17:01:59.356Z,22.20
2022-08-19T17:08:45.667Z,22.20
2022-08-19T17:15:32.336Z,22.20
2022-08-19T17:22:14.720Z,22.30
2022-08-19T17:28:59.090Z,21.90
2022-08-19T17:35:43.771Z,21.90
2022-08-19T17:42:26.483Z,21.70
2022-08-19T17:49:08.835Z,21.50
2022-08-19T17:55:51.197Z,21.40
2022-08-19T18:02:33.675Z,21.30
2022-08-19T18:09:16.892Z,21.30
2022-08-19T18:15:59.426Z,21.20
2022-08-19T18:22:44.783Z,21.10
2022-08-19T18:29:27.176Z,21.00
2022-08-19T18:36:09.617Z,21.00
2022-08-19T18:43:10.642Z,20.90
2022-08-19T18:49:53.058Z,20.90
2022-08-19T18:56:37.508Z,20.80
2022-08-19T19:03:19.949Z,20.80
2022-08-19T19:10:03.235Z,20.80
2022-08-19T19:16:48.685Z,20.80
2022-08-19T19:23:31.176Z,20.80
2022-08-19T19:30:14.044Z,20.80
2022-08-19T19:36:56.858Z,20.80
2022-08-19T19:43:40.870Z,20.60
2022-08-19T19:50:23.569Z,20.60
2022-08-19T19:57:05.982Z,20.60
2022-08-19T20:03:49.588Z,20.70
2022-08-19T20:10:32.510Z,20.80
2022-08-19T20:17:15.867Z,20.90
2022-08-19T20:24:09.057Z,21.00
2022-08-19T20:30:52.507Z,21.10
2022-08-19T20:37:34.896Z,21.00
2022-08-19T20:44:17.293Z,21.00
2022-08-19T20:50:59.797Z,21.00
2022-08-19T20:57:42.177Z,21.00
2022-08-19T21:04:24.581Z,21.10
2022-08-19T21:11:08.464Z,21.10
2022-08-19T21:17:51.840Z,21.10
2022-08-19T21:24:34.316Z,21.20
2022-08-19T21:31:17.897Z,21.30
2022-08-19T21:38:00.559Z,21.30
2022-08-19T21:44:45.917Z,21.40
2022-08-19T21:51:28.561Z,21.40
2022-08-19T21:58:11.752Z,21.50
2022-08-19T22:04:54.598Z,21.50
2022-08-19T22:11:37.163Z,21.70
2022-08-19T22:18:19.550Z,21.90
2022-08-19T22:25:09.860Z,22.30
2022-08-19T22:31:54.597Z,22.50
2022-08-19T22:38:40.680Z,22.50
2022-08-19T22:45:23.944Z,22.70
2022-08-19T22:52:17.223Z,22.70
2022-08-19T22:58:59.908Z,22.70
2022-08-19T23:05:42.461Z,22.70
2022-08-19T23:12:33.048Z,22.60
2022-08-19T23:19:15.542Z,22.50
2022-08-19T23:25:58.208Z,22.50
2022-08-19T23:32:40.841Z,22.50
2022-08-19T23:39:23.218Z,22.40
2022-08-19T23:46:10.567Z,22.30
2022-08-19T23:52:55.798Z,22.10
2022-08-19T23:59:38.241Z,21.90
